Terminal Aerodrome Forecast
Issued by NWS

Home | Current Version | Previous Version | Text Only | Print | Product List | Glossary On
Versions: 1 2 3 4 5 6 7 8 9 10 11 12 13
021
FTUS43 KLSX 250520
TAFUIN
TAF
KUIN 250520Z 2506/2606 15005KT P6SM FEW150
     FM251200 17005KT P6SM BKN100
     FM251700 23008KT P6SM BKN050 PROB30 2517/2520 4SM -TSRA
      OVC025CB
     FM252000 27009KT P6SM -SHRA OVC050
     FM252300 29009KT P6SM OVC070=

USA.gov is the U.S. government's official web portal to all federal, state and local government web resources and services.